Time;durP1;ratioP1;P1;durP2;ratioP2;P2;SDS_P1;SDS_P2;PMS_P1;PMS_P2;Temp;Humidity;BMP_temperature;BMP_pressure;BME280_temperature;BME280_humidity;BME280_pressure;Samples;Min_cycle;Max_cycle;Signal;HPM_P1;HPM_P2
2021/07/18 00:01:27;;;;;;;8.85;2.85;;;19.80;83.10;;;;;;5054371;28;20037;-77
2021/07/18 00:03:53;;;;;;;6.85;3.03;;;19.80;83.40;;;;;;5054458;28;20028;-77
2021/07/18 00:06:18;;;;;;;5.80;2.85;;;19.70;83.50;;;;;;5054336;28;20033;-77
2021/07/18 00:08:44;;;;;;;7.10;3.35;;;19.70;83.70;;;;;;5053018;28;20120;-77
2021/07/18 00:11:10;;;;;;;6.35;3.10;;;19.70;83.90;;;;;;5053012;28;20130;-77
2021/07/18 00:13:36;;;;;;;9.02;3.72;;;19.60;84.70;;;;;;5052837;28;20027;-77
2021/07/18 00:16:01;;;;;;;9.32;3.08;;;19.60;84.30;;;;;;5036022;28;20400;-77
2021/07/18 00:18:27;;;;;;;6.90;3.17;;;19.60;84.50;;;;;;5053936;28;20029;-77
2021/07/18 00:20:53;;;;;;;8.23;3.30;;;19.60;84.80;;;;;;5052858;28;20029;-77
2021/07/18 00:23:18;;;;;;;6.88;3.53;;;19.50;84.90;;;;;;5052859;28;20029;-77
2021/07/18 00:25:45;;;;;;;9.68;3.65;;;19.50;85.20;;;;;;5053875;28;20029;-74
2021/07/18 00:28:10;;;;;;;11.15;4.22;;;19.50;85.40;;;;;;5052646;28;20074;-74
2021/07/18 00:30:36;;;;;;;7.85;3.45;;;19.50;85.70;;;;;;5052666;28;20028;-74
2021/07/18 00:33:04;;;;;;;9.52;3.35;;;19.50;86.00;;;;;;5052673;28;20396;-74
2021/07/18 00:35:29;;;;;;;6.47;3.17;;;19.40;86.10;;;;;;5052544;28;20090;-74
2021/07/18 00:37:55;;;;;;;8.45;3.95;;;19.40;86.30;;;;;;5053463;28;20041;-74
2021/07/18 00:40:21;;;;;;;9.70;3.58;;;19.30;86.40;;;;;;5052589;28;20088;-75
2021/07/18 00:42:47;;;;;;;8.38;3.72;;;19.30;86.60;;;;;;5035796;28;20032;-74
2021/07/18 00:45:12;;;;;;;8.13;3.58;;;19.30;86.80;;;;;;5052347;28;20025;-74
2021/07/18 00:47:40;;;;;;;10.05;3.50;;;19.30;86.90;;;;;;5053627;28;20033;-73
2021/07/18 00:50:12;;;;;;;7.55;3.28;;;19.20;87.10;;;;;;5035752;28;20106;-74
2021/07/18 00:52:37;;;;;;;13.65;4.13;;;19.20;87.20;;;;;;5053639;28;20389;-73
2021/07/18 00:55:05;;;;;;;8.63;4.63;;;19.20;87.40;;;;;;5051986;28;20045;-74
2021/07/18 00:57:32;;;;;;;10.48;4.70;;;19.10;87.60;;;;;;5053301;28;20037;-73
2021/07/18 00:59:58;;;;;;;11.27;5.28;;;19.20;87.80;;;;;;5035432;28;20110;-76
2021/07/18 01:02:23;;;;;;;11.13;4.82;;;19.20;88.00;;;;;;5053242;28;20396;-76
2021/07/18 01:04:50;;;;;;;8.27;5.03;;;19.20;88.20;;;;;;5052150;28;20112;-77
2021/07/18 01:07:15;;;;;;;10.07;5.35;;;19.10;88.30;;;;;;5053227;28;20037;-77
2021/07/18 01:09:41;;;;;;;12.05;5.30;;;19.20;89.10;;;;;;5035184;28;20481;-77
2021/07/18 01:12:07;;;;;;;8.65;5.15;;;19.20;88.60;;;;;;5053200;28;20036;-77
2021/07/18 01:14:32;;;;;;;10.77;5.43;;;19.10;88.70;;;;;;5052110;28;20033;-77
2021/07/18 01:16:59;;;;;;;9.30;5.30;;;19.20;88.90;;;;;;5051820;28;20123;-77
2021/07/18 01:19:27;;;;;;;12.00;6.90;;;19.20;89.00;;;;;;5051915;28;20028;-77
2021/07/18 01:21:58;;;;;;;11.32;5.70;;;19.20;89.20;;;;;;5053266;28;20071;-77
2021/07/18 01:24:24;;;;;;;11.38;5.97;;;19.20;89.30;;;;;;5053126;28;20021;-77
2021/07/18 01:26:50;;;;;;;11.00;6.30;;;19.20;89.40;;;;;;5035350;28;20028;-77
2021/07/18 01:29:16;;;;;;;11.48;6.22;;;19.20;89.50;;;;;;5038159;28;20037;-77
2021/07/18 01:31:42;;;;;;;12.23;7.05;;;19.20;89.50;;;;;;5057249;28;20174;-77
2021/07/18 01:34:07;;;;;;;12.32;6.00;;;19.20;89.70;;;;;;5057097;28;20603;-76
2021/07/18 01:36:33;;;;;;;13.18;7.15;;;19.30;89.90;;;;;;5056987;28;20033;-77
2021/07/18 01:38:58;;;;;;;13.95;7.15;;;19.20;90.00;;;;;;5039064;28;20036;-76
2021/07/18 01:41:24;;;;;;;13.32;7.55;;;19.30;90.00;;;;;;5055852;28;20496;-77
2021/07/18 01:43:50;;;;;;;10.55;7.00;;;19.30;90.10;;;;;;5057038;28;20036;-77
2021/07/18 01:46:15;;;;;;;13.02;8.18;;;19.30;90.20;;;;;;5055643;28;20055;-77
2021/07/18 01:48:42;;;;;;;11.77;7.05;;;19.40;90.30;;;;;;5039091;28;20064;-77
2021/07/18 01:51:07;;;;;;;12.68;6.95;;;19.30;90.30;;;;;;5039033;28;20056;-76
2021/07/18 01:53:33;;;;;;;11.20;6.72;;;19.30;90.30;;;;;;5056769;28;20064;-73
2021/07/18 01:55:59;;;;;;;12.73;7.40;;;19.30;90.40;;;;;;5055282;28;20511;-73
2021/07/18 01:58:28;;;;;;;12.50;7.65;;;19.30;90.40;;;;;;5055656;28;20033;-73
2021/07/18 02:00:56;;;;;;;11.73;6.82;;;19.40;90.50;;;;;;5055394;28;20025;-73
2021/07/18 02:03:22;;;;;;;14.20;8.02;;;19.40;90.50;;;;;;5056629;28;20031;-74
2021/07/18 02:05:48;;;;;;;13.52;8.02;;;19.40;90.50;;;;;;5055361;28;20021;-73
2021/07/18 02:08:14;;;;;;;14.57;8.77;;;19.40;90.50;;;;;;5056505;28;20040;-74
2021/07/18 02:10:39;;;;;;;13.70;8.77;;;19.40;90.60;;;;;;5056570;28;20346;-74
2021/07/18 02:13:05;;;;;;;15.65;9.20;;;19.30;90.60;;;;;;5022121;28;20029;-73
2021/07/18 02:15:31;;;;;;;17.08;9.68;;;19.40;90.60;;;;;;5038583;28;20611;-73
2021/07/18 02:17:56;;;;;;;13.98;9.50;;;19.40;90.70;;;;;;5056377;28;20024;-74
2021/07/18 02:20:23;;;;;;;15.18;10.13;;;19.40;90.70;;;;;;5056337;28;20484;-74
2021/07/18 02:22:53;;;;;;;13.65;8.52;;;19.40;90.80;;;;;;5056097;28;20029;-74
2021/07/18 02:25:22;;;;;;;12.63;8.32;;;19.40;90.80;;;;;;5056160;28;20029;-73
2021/07/18 02:27:49;;;;;;;14.27;8.20;;;19.40;91.10;;;;;;5054888;28;20033;-73
2021/07/18 02:30:18;;;;;;;14.82;7.85;;;19.40;90.80;;;;;;5054987;28;20530;-72
2021/07/18 02:32:44;;;;;;;12.32;8.02;;;19.40;90.80;;;;;;5056073;28;20053;-73
2021/07/18 02:35:12;;;;;;;13.30;7.97;;;19.40;90.80;;;;;;5055898;28;20068;-73
2021/07/18 02:37:38;;;;;;;11.25;7.43;;;19.40;90.80;;;;;;5055814;28;20036;-74
2021/07/18 02:40:05;;;;;;;11.27;7.30;;;19.30;90.80;;;;;;5055484;28;20071;-72
2021/07/18 02:42:31;;;;;;;12.10;7.65;;;19.40;90.80;;;;;;5055854;28;20033;-73
2021/07/18 02:44:56;;;;;;;10.68;6.22;;;19.40;90.80;;;;;;5055864;28;20021;-73
2021/07/18 02:47:22;;;;;;;10.45;5.88;;;19.30;90.80;;;;;;5038061;28;20436;-73
2021/07/18 02:49:48;;;;;;;10.80;6.32;;;19.30;90.70;;;;;;5037856;28;20040;-74
2021/07/18 02:52:15;;;;;;;11.85;7.15;;;19.30;90.70;;;;;;5054392;28;20025;-72
2021/07/18 02:54:40;;;;;;;11.80;6.90;;;19.30;90.70;;;;;;5054417;28;20433;-73
2021/07/18 02:57:06;;;;;;;11.82;7.05;;;19.20;91.00;;;;;;5054235;28;20037;-73
2021/07/18 02:59:32;;;;;;;11.85;7.25;;;19.30;90.80;;;;;;5054315;28;20542;-74
2021/07/18 03:01:59;;;;;;;10.57;7.03;;;19.30;90.80;;;;;;5054214;28;20032;-73
2021/07/18 03:04:26;;;;;;;10.05;7.00;;;19.30;90.90;;;;;;5055475;28;20021;-74
2021/07/18 03:06:52;;;;;;;12.82;7.07;;;19.30;90.90;;;;;;5054170;28;20035;-73
2021/07/18 03:09:22;;;;;;;12.18;7.50;;;19.30;90.90;;;;;;5055426;28;20132;-73
2021/07/18 03:11:48;;;;;;;13.02;7.68;;;19.30;91.20;;;;;;5054348;28;20159;-77
2021/07/18 03:14:14;;;;;;;13.20;8.05;;;19.20;90.90;;;;;;5037580;28;20451;-77
2021/07/18 03:16:39;;;;;;;13.90;7.95;;;19.20;91.00;;;;;;5053870;28;20029;-77
2021/07/18 03:19:05;;;;;;;12.45;7.93;;;19.20;91.00;;;;;;5037493;28;20104;-77
2021/07/18 03:21:34;;;;;;;14.73;8.90;;;19.20;91.10;;;;;;5037394;28;20039;-77
2021/07/18 03:24:03;;;;;;;15.93;9.32;;;19.20;91.10;;;;;;5021705;28;20021;-77
2021/07/18 03:26:28;;;;;;;16.30;9.80;;;19.20;91.10;;;;;;5055064;28;20033;-77
2021/07/18 03:28:54;;;;;;;19.00;10.25;;;19.20;91.20;;;;;;5037526;28;20028;-76
2021/07/18 03:31:20;;;;;;;17.50;8.80;;;19.20;91.20;;;;;;5055026;28;20480;-76
2021/07/18 03:33:45;;;;;;;15.80;9.50;;;19.20;91.20;;;;;;5037029;28;20029;-77
2021/07/18 03:36:11;;;;;;;16.10;9.00;;;19.20;91.20;;;;;;5054814;28;20241;-77
2021/07/18 03:38:37;;;;;;;17.92;9.30;;;19.20;91.20;;;;;;5053696;28;20033;-76
2021/07/18 03:41:03;;;;;;;16.35;9.60;;;19.20;91.20;;;;;;5054886;28;20096;-77
2021/07/18 03:43:29;;;;;;;14.93;8.38;;;19.20;91.20;;;;;;5053618;28;20036;-77
2021/07/18 03:45:55;;;;;;;13.07;8.20;;;19.10;91.10;;;;;;5054663;28;20025;-73
2021/07/18 03:48:20;;;;;;;12.20;8.27;;;19.10;91.10;;;;;;5054696;28;20029;-73
2021/07/18 03:50:48;;;;;;;13.63;7.15;;;19.20;91.10;;;;;;5053854;28;20029;-73
2021/07/18 03:53:14;;;;;;;12.43;7.03;;;19.20;91.10;;;;;;5053474;28;20154;-73
2021/07/18 03:55:39;;;;;;;11.75;7.63;;;19.10;91.00;;;;;;5053131;28;20120;-73
2021/07/18 03:58:05;;;;;;;12.95;7.55;;;19.10;91.00;;;;;;5054340;28;20036;-73
2021/07/18 04:00:31;;;;;;;10.95;6.40;;;19.10;91.00;;;;;;5049545;28;20040;-73
2021/07/18 04:02:56;;;;;;;10.77;6.85;;;19.10;91.00;;;;;;5033182;28;20092;-74
2021/07/18 04:05:22;;;;;;;10.40;6.70;;;19.10;91.00;;;;;;5033386;28;20040;-73
2021/07/18 04:07:47;;;;;;;10.93;6.35;;;19.10;91.00;;;;;;5034222;28;20121;-73
2021/07/18 04:10:13;;;;;;;9.40;6.38;;;19.10;91.00;;;;;;5034329;28;20039;-74
2021/07/18 04:12:39;;;;;;;11.07;7.03;;;19.10;91.00;;;;;;5016487;28;20114;-74
2021/07/18 04:15:06;;;;;;;11.32;6.57;;;19.10;91.10;;;;;;5032459;28;20503;-73
2021/07/18 04:17:31;;;;;;;10.00;6.45;;;19.00;91.00;;;;;;5032544;28;20112;-74
2021/07/18 04:19:57;;;;;;;11.10;6.60;;;19.10;91.10;;;;;;5032901;28;20079;-73
2021/07/18 04:22:23;;;;;;;9.77;6.20;;;19.00;91.10;;;;;;5033209;28;20034;-74
2021/07/18 04:24:49;;;;;;;10.65;7.00;;;19.00;91.10;;;;;;5033930;28;20525;-73
2021/07/18 04:27:14;;;;;;;10.65;6.45;;;19.10;91.10;;;;;;5034057;28;20390;-74
2021/07/18 04:29:40;;;;;;;9.95;6.38;;;19.00;91.10;;;;;;5032705;28;20060;-74
2021/07/18 04:32:06;;;;;;;10.55;6.28;;;19.10;91.20;;;;;;5032814;28;20386;-73
2021/07/18 04:34:31;;;;;;;10.13;5.10;;;19.10;91.10;;;;;;5034018;28;20539;-73
2021/07/18 04:36:58;;;;;;;9.70;4.90;;;19.00;91.10;;;;;;5033684;28;20033;-74
2021/07/18 04:39:24;;;;;;;8.88;4.78;;;19.00;91.10;;;;;;5033664;28;20022;-73
2021/07/18 04:41:50;;;;;;;10.55;5.45;;;19.00;91.10;;;;;;5032493;28;20021;-74
2021/07/18 04:44:16;;;;;;;9.00;5.78;;;19.00;91.10;;;;;;5032392;28;20034;-74
2021/07/18 04:46:41;;;;;;;11.60;5.03;;;19.00;91.10;;;;;;5033623;28;20477;-73
2021/07/18 04:49:07;;;;;;;8.70;5.03;;;19.00;91.10;;;;;;5032377;28;20067;-73
2021/07/18 04:51:32;;;;;;;8.73;5.10;;;19.00;91.00;;;;;;5015893;28;20026;-73
2021/07/18 04:53:58;;;;;;;8.68;4.93;;;19.00;91.00;;;;;;5032172;28;20036;-73
2021/07/18 04:56:24;;;;;;;7.95;4.63;;;19.00;91.00;;;;;;5015911;28;20029;-73
2021/07/18 04:58:49;;;;;;;9.00;5.32;;;18.90;91.00;;;;;;5032397;28;20029;-72
2021/07/18 05:01:15;;;;;;;7.78;4.80;;;18.90;91.10;;;;;;5032168;28;20067;-73
2021/07/18 05:03:41;;;;;;;8.40;4.70;;;18.90;91.00;;;;;;5033567;28;20025;-73
2021/07/18 05:06:06;;;;;;;7.32;4.75;;;18.90;91.10;;;;;;5032240;28;20029;-73
2021/07/18 05:08:33;;;;;;;6.85;4.60;;;18.90;91.10;;;;;;5032306;28;20034;-73
2021/07/18 05:11:00;;;;;;;8.55;4.30;;;19.00;91.10;;;;;;5032196;28;20032;-73
2021/07/18 05:13:25;;;;;;;7.30;4.25;;;18.90;91.00;;;;;;5032145;28;20029;-73
2021/07/18 05:15:51;;;;;;;8.10;5.22;;;18.90;91.10;;;;;;5032098;28;20025;-73
2021/07/18 05:18:17;;;;;;;7.47;4.88;;;18.90;91.10;;;;;;5033139;28;20026;-74
2021/07/18 05:20:42;;;;;;;8.75;4.97;;;18.90;91.10;;;;;;5015574;28;20084;-73
2021/07/18 05:23:09;;;;;;;7.32;4.72;;;18.90;91.00;;;;;;5033175;28;20104;-73
2021/07/18 05:25:35;;;;;;;8.70;4.82;;;19.00;91.10;;;;;;5033254;28;20034;-73
2021/07/18 05:28:01;;;;;;;7.60;5.05;;;19.00;91.10;;;;;;5031768;28;20599;-74
2021/07/18 05:30:27;;;;;;;7.72;4.63;;;19.00;91.10;;;;;;5033089;28;20493;-75
2021/07/18 05:32:53;;;;;;;8.88;4.53;;;19.00;91.10;;;;;;5031956;28;20485;-74
2021/07/18 05:35:19;;;;;;;6.82;4.63;;;19.00;91.10;;;;;;5015373;28;20037;-74
2021/07/18 05:37:45;;;;;;;8.07;4.95;;;19.00;91.10;;;;;;5033046;28;20558;-74
2021/07/18 05:40:11;;;;;;;6.72;4.28;;;19.00;91.40;;;;;;5031883;28;20021;-74
2021/07/18 05:42:37;;;;;;;6.90;4.50;;;19.10;91.20;;;;;;5031879;28;20071;-74
2021/07/18 05:45:08;;;;;;;7.38;4.97;;;19.10;91.20;;;;;;5032986;28;20025;-74
2021/07/18 05:47:34;;;;;;;7.05;3.97;;;19.10;91.20;;;;;;5031649;28;20048;-74
2021/07/18 05:50:01;;;;;;;7.82;4.80;;;19.10;91.20;;;;;;5044593;28;20064;-74
2021/07/18 05:52:27;;;;;;;6.18;3.58;;;19.20;91.20;;;;;;5052035;28;20307;-74
2021/07/18 05:54:53;;;;;;;7.35;4.28;;;19.10;91.20;;;;;;5051785;28;20051;-75
2021/07/18 05:57:19;;;;;;;6.30;3.97;;;19.10;91.10;;;;;;5051399;28;20037;-74
2021/07/18 05:59:45;;;;;;;6.85;3.95;;;19.20;91.20;;;;;;5052825;28;20033;-74
2021/07/18 06:02:11;;;;;;;7.20;4.57;;;19.20;91.20;;;;;;5034966;28;20056;-74
2021/07/18 06:04:37;;;;;;;6.57;4.22;;;19.20;91.20;;;;;;5048019;28;20424;-73
2021/07/18 06:07:03;;;;;;;8.63;3.75;;;19.30;91.20;;;;;;5032676;28;20037;-74
2021/07/18 06:09:29;;;;;;;7.63;3.90;;;19.20;91.10;;;;;;5031506;28;20524;-74
2021/07/18 06:11:54;;;;;;;6.22;3.45;;;19.30;91.10;;;;;;5030896;28;20061;-77
2021/07/18 06:14:20;;;;;;;5.85;3.20;;;19.20;91.10;;;;;;5032477;28;20030;-77
2021/07/18 06:16:46;;;;;;;5.47;3.08;;;19.30;91.00;;;;;;5036388;28;20072;-78
2021/07/18 06:19:12;;;;;;;5.28;3.08;;;19.40;91.00;;;;;;5035869;28;20026;-77
2021/07/18 06:21:38;;;;;;;6.97;3.35;;;19.30;91.00;;;;;;5034733;28;20044;-75
2021/07/18 06:24:04;;;;;;;6.43;3.42;;;19.30;90.90;;;;;;5035180;28;20037;-77
2021/07/18 06:26:29;;;;;;;5.45;2.78;;;19.40;90.90;;;;;;5036108;28;20127;-75
2021/07/18 06:28:55;;;;;;;7.28;4.20;;;19.40;90.90;;;;;;5035265;28;20038;-74
2021/07/18 06:31:21;;;;;;;6.50;4.05;;;19.50;90.90;;;;;;5034963;28;20036;-73
2021/07/18 06:33:47;;;;;;;6.50;4.05;;;19.50;90.90;;;;;;5018325;28;20116;-77
2021/07/18 06:36:13;;;;;;;7.00;3.90;;;19.50;90.90;;;;;;5035958;28;20033;-77
2021/07/18 06:38:39;;;;;;;6.63;3.65;;;19.50;91.00;;;;;;5035952;28;20079;-78
2021/07/18 06:41:06;;;;;;;6.13;3.53;;;19.50;90.90;;;;;;5034959;28;20033;-77
2021/07/18 06:43:31;;;;;;;5.53;3.22;;;19.50;91.00;;;;;;5035847;28;20358;-77
2021/07/18 06:45:57;;;;;;;5.88;2.95;;;19.50;91.00;;;;;;5034731;28;20084;-75
2021/07/18 06:48:23;;;;;;;4.65;2.75;;;19.60;91.00;;;;;;5034802;28;20029;-74
2021/07/18 06:50:49;;;;;;;6.03;2.60;;;19.60;91.00;;;;;;5035777;28;20034;-76
2021/07/18 06:53:15;;;;;;;3.75;2.03;;;19.60;90.90;;;;;;5018028;28;20492;-76
2021/07/18 06:55:40;;;;;;;5.30;2.40;;;19.70;90.90;;;;;;5034285;28;20049;-75
2021/07/18 06:58:06;;;;;;;6.00;2.10;;;19.70;90.80;;;;;;5034182;28;20034;-75
2021/07/18 07:00:32;;;;;;;4.30;2.35;;;19.80;90.70;;;;;;5034414;28;20033;-75
2021/07/18 07:02:57;;;;;;;4.05;2.10;;;19.80;90.70;;;;;;5035590;28;20477;-77
2021/07/18 07:05:23;;;;;;;4.82;2.33;;;19.80;90.60;;;;;;5035517;28;20059;-77
2021/07/18 07:07:49;;;;;;;4.63;2.08;;;19.90;90.60;;;;;;5017806;28;20107;-77
2021/07/18 07:10:16;;;;;;;4.88;2.05;;;19.90;90.50;;;;;;5034169;28;20088;-78
2021/07/18 07:12:43;;;;;;;4.80;2.10;;;20.00;90.50;;;;;;5034197;28;20025;-78
2021/07/18 07:15:10;;;;;;;4.40;1.60;;;20.00;90.50;;;;;;5034108;28;20460;-77
2021/07/18 07:17:35;;;;;;;4.43;1.88;;;20.00;90.40;;;;;;5035260;28;20508;-77
2021/07/18 07:20:05;;;;;;;4.93;1.85;;;20.10;90.40;;;;;;5017613;28;20026;-78
2021/07/18 07:22:31;;;;;;;3.28;1.65;;;20.10;90.30;;;;;;5033750;28;20084;-77
2021/07/18 07:24:56;;;;;;;3.28;1.70;;;20.20;90.30;;;;;;5033689;28;20022;-77
2021/07/18 07:27:22;;;;;;;3.45;1.50;;;20.20;90.30;;;;;;5033176;28;20128;-78
2021/07/18 07:29:48;;;;;;;4.30;1.67;;;20.30;90.20;;;;;;5033979;28;20033;-77
2021/07/18 07:32:13;;;;;;;4.88;1.80;;;20.30;90.10;;;;;;5033678;28;20036;-76
2021/07/18 07:34:39;;;;;;;3.72;1.40;;;20.40;90.00;;;;;;5017418;28;20117;-75
2021/07/18 07:37:05;;;;;;;3.22;1.40;;;20.50;89.80;;;;;;5033652;28;20545;-75
2021/07/18 07:39:30;;;;;;;2.33;1.05;;;20.50;89.50;;;;;;5034636;28;20108;-74
2021/07/18 07:41:56;;;;;;;5.45;1.70;;;20.50;89.20;;;;;;5034832;28;20097;-74
2021/07/18 07:44:21;;;;;;;4.85;1.38;;;20.60;88.90;;;;;;5034768;28;20034;-75
2021/07/18 07:46:47;;;;;;;3.47;1.40;;;20.70;88.80;;;;;;5033664;28;20116;-75
2021/07/18 07:49:13;;;;;;;4.65;1.13;;;20.70;88.50;;;;;;5033629;28;20038;-74
2021/07/18 07:51:39;;;;;;;5.72;1.27;;;20.80;89.00;;;;;;5034681;28;20053;-75
2021/07/18 07:54:05;;;;;;;5.15;1.45;;;20.80;88.10;;;;;;5034583;28;20025;-75
2021/07/18 07:56:31;;;;;;;3.90;1.40;;;20.90;87.80;;;;;;5033262;28;20056;-76
2021/07/18 07:58:57;;;;;;;3.10;1.50;;;21.00;87.70;;;;;;5034711;28;20092;-76
2021/07/18 08:01:24;;;;;;;3.63;1.77;;;21.00;88.10;;;;;;5033352;28;20025;-75
2021/07/18 08:03:51;;;;;;;3.33;1.20;;;21.10;87.40;;;;;;5034456;28;20025;-75
2021/07/18 08:06:17;;;;;;;5.88;1.50;;;21.10;87.10;;;;;;5034258;28;20033;-75
2021/07/18 08:08:43;;;;;;;2.38;1.10;;;21.20;86.70;;;;;;5016605;28;20017;-76
2021/07/18 08:11:09;;;;;;;3.67;1.10;;;21.30;86.50;;;;;;5033203;28;20021;-75
2021/07/18 08:13:39;;;;;;;4.07;1.20;;;21.30;86.30;;;;;;5016465;28;20160;-74
2021/07/18 08:16:06;;;;;;;6.88;1.50;;;21.40;86.00;;;;;;5034208;28;20026;-75
2021/07/18 08:18:32;;;;;;;4.10;1.40;;;21.50;85.50;;;;;;5032615;28;20547;-75
2021/07/18 08:20:57;;;;;;;3.28;1.20;;;21.50;85.00;;;;;;5032830;28;20061;-75
2021/07/18 08:23:23;;;;;;;3.50;1.40;;;21.60;84.80;;;;;;5016353;28;20028;-74
2021/07/18 08:25:49;;;;;;;5.43;1.92;;;21.60;84.40;;;;;;5033919;28;20029;-74
2021/07/18 08:28:15;;;;;;;3.08;1.27;;;21.70;84.20;;;;;;5032808;28;20034;-76
2021/07/18 08:30:42;;;;;;;6.47;1.23;;;21.80;84.00;;;;;;5034046;28;20029;-76
2021/07/18 08:33:08;;;;;;;3.13;1.20;;;21.80;83.80;;;;;;5032865;28;20505;-75
2021/07/18 08:35:34;;;;;;;5.45;1.35;;;21.80;83.50;;;;;;5032574;28;20030;-74
2021/07/18 08:37:59;;;;;;;2.75;1.10;;;22.00;83.40;;;;;;5033423;28;20087;-75
2021/07/18 08:40:25;;;;;;;4.55;1.80;;;22.00;83.20;;;;;;5032551;28;20040;-78
2021/07/18 08:42:51;;;;;;;6.03;1.38;;;22.10;83.00;;;;;;5032363;28;20036;-75
2021/07/18 08:45:17;;;;;;;3.35;1.10;;;22.10;82.90;;;;;;5033653;28;20028;-74
2021/07/18 08:47:42;;;;;;;4.05;1.40;;;22.20;82.60;;;;;;5032601;28;20033;-75
2021/07/18 08:50:09;;;;;;;6.35;1.38;;;22.30;82.20;;;;;;5032345;28;20121;-75
2021/07/18 08:52:36;;;;;;;4.10;1.33;;;22.30;81.70;;;;;;5032485;28;20056;-75
2021/07/18 08:55:04;;;;;;;4.05;1.20;;;22.40;82.00;;;;;;5033356;28;20124;-75
2021/07/18 08:57:30;;;;;;;4.38;1.50;;;22.50;81.10;;;;;;5032149;28;20053;-75
2021/07/18 08:59:56;;;;;;;3.33;1.00;;;22.50;80.70;;;;;;5033574;28;20426;-74
2021/07/18 09:02:22;;;;;;;4.22;1.52;;;22.60;80.60;;;;;;5033484;28;20036;-75
2021/07/18 09:04:48;;;;;;;3.95;1.33;;;22.70;81.20;;;;;;5033473;28;20079;-74
2021/07/18 09:07:18;;;;;;;4.50;1.33;;;22.70;80.40;;;;;;5032155;28;20428;-74
2021/07/18 09:09:45;;;;;;;5.60;1.30;;;22.90;80.10;;;;;;5033391;28;20026;-75
2021/07/18 09:12:11;;;;;;;4.97;1.27;;;22.90;79.60;;;;;;5033359;28;20021;-76
2021/07/18 09:14:58;;;;;;;6.18;1.20;;;23.00;79.30;;;;;;5033314;28;20041;-74
2021/07/18 09:17:25;;;;;;;3.40;1.15;;;23.10;78.90;;;;;;5031929;28;20071;-75
2021/07/18 09:19:51;;;;;;;5.43;1.67;;;23.10;78.60;;;;;;5032098;28;20026;-76
2021/07/18 09:22:19;;;;;;;3.42;1.13;;;23.10;78.30;;;;;;5033211;28;20127;-74
2021/07/18 09:24:47;;;;;;;5.18;1.58;;;23.20;78.10;;;;;;5033325;28;20014;-76
2021/07/18 09:27:35;;;;;;;3.88;1.15;;;23.30;78.10;;;;;;5033179;28;20517;-78
2021/07/18 09:30:04;;;;;;;2.78;1.10;;;23.30;77.60;;;;;;5033202;28;20033;-78
2021/07/18 09:32:31;;;;;;;6.00;1.55;;;23.40;77.20;;;;;;5033150;28;20029;-78
2021/07/18 09:35:08;;;;;;;4.35;1.02;;;23.50;76.90;;;;;;5031776;28;20531;-78
2021/07/18 09:37:36;;;;;;;5.82;1.08;;;23.50;76.50;;;;;;5031833;28;20389;-78
2021/07/18 09:40:14;;;;;;;3.67;0.80;;;23.60;76.30;;;;;;5032990;28;20025;-78
2021/07/18 09:42:43;;;;;;;2.72;0.90;;;23.60;75.90;;;;;;5033044;28;20389;-77
2021/07/18 09:45:30;;;;;;;2.58;0.90;;;23.70;75.70;;;;;;5032765;28;20104;-77
2021/07/18 09:48:08;;;;;;;5.00;1.25;;;23.80;75.30;;;;;;5031443;28;20041;-78
2021/07/18 09:50:35;;;;;;;4.57;1.08;;;23.80;75.10;;;;;;5018408;28;20393;-78
2021/07/18 09:53:24;;;;;;;4.47;0.93;;;23.90;74.80;;;;;;5035575;28;20025;-79
2021/07/18 09:56:16;;;;;;;2.55;1.02;;;23.90;74.10;;;;;;5036910;28;20045;-78
2021/07/18 09:58:53;;;;;;;3.47;0.88;;;24.00;73.90;;;;;;5035446;28;20041;-78
2021/07/18 10:01:19;;;;;;;3.28;1.02;;;24.10;73.70;;;;;;5035365;28;20034;-77
2021/07/18 10:03:55;;;;;;;2.95;0.95;;;24.10;73.60;;;;;;5036700;28;20033;-78
2021/07/18 10:06:24;;;;;;;4.55;1.10;;;24.20;73.40;;;;;;5036655;28;20029;-79
2021/07/18 10:08:55;;;;;;;4.32;1.10;;;24.30;73.10;;;;;;5036584;28;20032;-79
2021/07/18 10:11:26;;;;;;;3.40;0.98;;;24.30;72.60;;;;;;5036595;28;20021;-78
2021/07/18 10:13:54;;;;;;;2.00;0.80;;;24.30;72.10;;;;;;5036489;28;20104;-77
2021/07/18 10:16:22;;;;;;;2.47;0.73;;;24.40;72.00;;;;;;5036409;28;20036;-77
2021/07/18 10:18:49;;;;;;;3.20;0.80;;;24.50;71.70;;;;;;5036589;28;20030;-74
2021/07/18 10:21:18;;;;;;;4.60;1.05;;;24.60;71.20;;;;;;5035230;28;20418;-79
2021/07/18 10:23:45;;;;;;;3.28;0.75;;;24.60;70.60;;;;;;5036163;28;20488;-77
2021/07/18 10:26:20;;;;;;;1.42;0.63;;;24.70;70.20;;;;;;5036221;28;20048;-77
2021/07/18 10:28:46;;;;;;;1.77;0.70;;;24.70;69.70;;;;;;5036181;28;20022;-77
2021/07/18 10:31:18;;;;;;;3.08;0.90;;;24.80;69.50;;;;;;5036319;28;20113;-78
2021/07/18 10:33:45;;;;;;;2.92;0.80;;;24.90;68.80;;;;;;5036185;28;20029;-78
2021/07/18 10:36:12;;;;;;;1.40;0.80;;;25.00;68.20;;;;;;5036013;28;20033;-77
2021/07/18 10:38:38;;;;;;;3.63;1.05;;;25.00;67.70;;;;;;5034742;28;20026;-79
2021/07/18 10:41:04;;;;;;;3.45;0.90;;;25.10;67.50;;;;;;5034830;28;20025;-77
2021/07/18 10:43:45;;;;;;;3.35;0.98;;;25.20;67.00;;;;;;5036075;28;20040;-78
2021/07/18 10:46:13;;;;;;;2.55;0.98;;;25.30;66.30;;;;;;5035021;28;20021;-78
2021/07/18 10:48:50;;;;;;;2.22;0.90;;;25.40;65.90;;;;;;5035875;28;20033;-82
2021/07/18 10:51:18;;;;;;;2.33;0.90;;;25.50;65.20;;;;;;5035774;28;20108;-78
2021/07/18 10:53:44;;;;;;;2.92;0.90;;;25.60;64.90;;;;;;5034669;28;20034;-80
2021/07/18 10:56:11;;;;;;;2.65;0.82;;;25.70;64.60;;;;;;5035695;28;20073;-78
2021/07/18 10:58:39;;;;;;;3.50;0.90;;;25.80;64.30;;;;;;5017929;28;20084;-79
2021/07/18 11:01:26;;;;;;;2.90;1.42;;;26.00;63.90;;;;;;5034234;28;20030;-82
2021/07/18 11:03:52;;;;;;;4.55;1.20;;;26.10;63.70;;;;;;5034239;28;20032;-79
2021/07/18 11:06:27;;;;;;;2.72;0.95;;;26.20;63.70;;;;;;5035553;28;20033;-77
2021/07/18 11:09:08;;;;;;;2.38;0.88;;;26.40;63.60;;;;;;5035502;28;20418;-78
2021/07/18 11:11:46;;;;;;;3.33;1.00;;;26.60;62.90;;;;;;5035409;28;20132;-79
2021/07/18 11:14:36;;;;;;;2.00;0.85;;;26.70;62.80;;;;;;5035326;28;20043;-79
2021/07/18 11:17:08;;;;;;;2.08;0.90;;;26.90;62.60;;;;;;5034015;28;20026;-79
2021/07/18 11:19:39;;;;;;;2.67;1.10;;;27.10;62.70;;;;;;5035327;28;20076;-79
2021/07/18 11:22:10;;;;;;;3.45;1.45;;;27.20;62.30;;;;;;5035267;28;20488;-78
2021/07/18 11:24:52;;;;;;;3.83;1.30;;;27.40;61.90;;;;;;5035074;28;20022;-79
2021/07/18 11:27:30;;;;;;;3.25;1.30;;;27.50;61.30;;;;;;5035154;28;20027;-77
2021/07/18 11:29:58;;;;;;;3.75;1.52;;;27.70;61.20;;;;;;5034025;28;20033;-79
2021/07/18 11:32:28;;;;;;;4.13;1.55;;;27.80;61.20;;;;;;5034995;28;20038;-77
2021/07/18 11:34:55;;;;;;;2.72;1.05;;;27.90;60.90;;;;;;5033629;28;20083;-79
2021/07/18 11:37:25;;;;;;;2.78;0.90;;;28.10;60.60;;;;;;5034811;28;20057;-78
2021/07/18 11:39:51;;;;;;;1.33;0.80;;;28.30;60.10;;;;;;5034722;28;20096;-78
2021/07/18 11:42:17;;;;;;;2.33;1.00;;;28.60;60.00;;;;;;5033617;28;20133;-76
2021/07/18 11:44:45;;;;;;;3.50;1.10;;;28.90;59.50;;;;;;5033457;28;20031;-77
2021/07/18 11:47:16;;;;;;;3.72;1.20;;;29.00;59.00;;;;;;5034544;28;20053;-78
2021/07/18 11:49:45;;;;;;;2.65;1.05;;;29.20;58.40;;;;;;5034548;28;20083;-79
2021/07/18 11:52:13;;;;;;;3.22;1.20;;;29.40;58.10;;;;;;5033450;28;20128;-80
2021/07/18 11:54:39;;;;;;;3.03;1.02;;;29.70;57.70;;;;;;5033147;28;20033;-79
2021/07/18 11:57:10;;;;;;;1.67;1.00;;;30.00;57.30;;;;;;5016746;28;20034;-77
2021/07/18 11:59:37;;;;;;;2.78;1.15;;;30.10;56.50;;;;;;5034430;28;20057;-77
2021/07/18 12:02:05;;;;;;;3.13;1.15;;;30.20;56.00;;;;;;5034419;28;20466;-76
2021/07/18 12:04:31;;;;;;;4.18;1.20;;;30.40;55.80;;;;;;5033237;28;20057;-83
2021/07/18 12:06:59;;;;;;;2.83;1.27;;;30.60;55.50;;;;;;5016829;28;20115;-81
2021/07/18 12:09:30;;;;;;;2.03;1.02;;;30.70;55.00;;;;;;5034435;28;20428;-79
2021/07/18 12:12:00;;;;;;;2.33;0.90;;;30.80;54.40;;;;;;5033772;28;20109;-77
2021/07/18 12:14:30;;;;;;;3.55;1.25;;;30.90;54.10;;;;;;5034227;28;20025;-78
2021/07/18 12:16:56;;;;;;;1.92;0.90;;;31.10;53.80;;;;;;5032905;28;20022;-80
2021/07/18 12:19:25;;;;;;;4.35;1.00;;;31.20;53.40;;;;;;5034118;28;20033;-78
2021/07/18 12:21:51;;;;;;;2.63;1.00;;;31.40;53.10;;;;;;5034104;28;20025;-78
2021/07/18 12:24:20;;;;;;;1.75;0.93;;;31.60;52.80;;;;;;5034070;28;20057;-77
2021/07/18 12:26:53;;;;;;;1.83;0.95;;;31.70;52.60;;;;;;5033784;28;20056;-75
2021/07/18 12:29:20;;;;;;;2.38;1.08;;;31.90;52.10;;;;;;5034087;28;20033;-77
2021/07/18 12:31:47;;;;;;;3.08;0.98;;;32.00;51.70;;;;;;5033976;28;20030;-76
2021/07/18 12:34:15;;;;;;;2.42;1.20;;;32.10;51.00;;;;;;5032564;28;20116;-77
2021/07/18 12:37:15;;;;;;;2.65;1.00;;;32.30;50.70;;;;;;5033657;28;20030;-78
2021/07/18 12:39:47;;;;;;;2.00;1.10;;;32.40;49.70;;;;;;5036416;28;20049;-79
2021/07/18 12:42:31;;;;;;;2.00;1.10;;;32.50;50.00;;;;;;5032363;28;20028;-78
2021/07/18 12:45:11;;;;;;;1.45;0.80;;;32.70;49.70;;;;;;5033768;28;20450;-79